Time;durP1;ratioP1;P1;durP2;ratioP2;P2;SDS_P1;SDS_P2;PMS_P1;PMS_P2;Temp;Humidity;BMP_temperature;BMP_pressure;BME280_temperature;BME280_humidity;BME280_pressure;Samples;Min_cycle;Max_cycle;Signal;HPM_P1;HPM_P2
2023/12/18 00:02:09;;;;;;;64.93;34.97;;;;;;;;;;6084438;29;20227;-84
2023/12/18 00:05:11;;;;;;;61.67;36.33;;;;;;;;;;6089041;29;20063;-85
2023/12/18 00:08:13;;;;;;;62.17;35.67;;;;;;;;;;6089206;29;20328;-87
2023/12/18 00:11:15;;;;;;;59.35;36.50;;;;;;;;;;6086639;29;20049;-85
2023/12/18 00:14:18;;;;;;;62.63;37.38;;;;;;;;;;6089916;29;20048;-84
2023/12/18 00:17:20;;;;;;;60.30;36.60;;;;;;;;;;6085292;29;20260;-84
2023/12/18 00:20:22;;;;;;;59.22;36.42;;;;;;;;;;6088823;29;20060;-84
2023/12/18 00:23:23;;;;;;;65.72;36.53;;;;;;;;;;6091016;29;20052;-85
2023/12/18 00:26:25;;;;;;;61.75;37.63;;;;;;;;;;6085622;29;20276;-84
2023/12/18 00:29:28;;;;;;;65.07;36.97;;;;;;;;;;6086513;29;20059;-85
2023/12/18 00:32:32;;;;;;;65.00;37.25;;;;;;;;;;6086587;29;20209;-86
2023/12/18 00:35:33;;;;;;;67.63;36.47;;;;;;;;;;6091991;29;20048;-86
2023/12/18 00:38:35;;;;;;;66.85;37.83;;;;;;;;;;6087178;29;20072;-85
2023/12/18 00:41:37;;;;;;;65.55;39.45;;;;;;;;;;6081694;29;20041;-85
2023/12/18 00:44:40;;;;;;;61.53;37.10;;;;;;;;;;6089335;29;20049;-85
2023/12/18 00:47:42;;;;;;;66.82;40.45;;;;;;;;;;6078691;29;20052;-79
2023/12/18 00:50:43;;;;;;;59.63;37.72;;;;;;;;;;6079893;29;20052;-80
2023/12/18 00:53:45;;;;;;;67.78;40.60;;;;;;;;;;6087046;29;20061;-79
2023/12/18 00:56:47;;;;;;;66.10;39.50;;;;;;;;;;6085042;29;20063;-79
2023/12/18 00:59:50;;;;;;;65.93;38.72;;;;;;;;;;6083371;29;20344;-80
2023/12/18 01:02:51;;;;;;;60.85;37.97;;;;;;;;;;6087947;29;20073;-80
2023/12/18 01:05:53;;;;;;;65.90;39.65;;;;;;;;;;6084169;29;20056;-79
2023/12/18 01:08:55;;;;;;;65.00;38.85;;;;;;;;;;6083528;29;20057;-79
2023/12/18 01:11:56;;;;;;;61.92;38.00;;;;;;;;;;6080869;29;20048;-79
2023/12/18 01:15:00;;;;;;;114.38;58.67;;;;;;;;;;6082869;29;20345;-79
2023/12/18 01:18:01;;;;;;;80.88;45.20;;;;;;;;;;6089396;29;20051;-79
2023/12/18 01:21:04;;;;;;;99.30;50.40;;;;;;;;;;6086565;29;20249;-79
2023/12/18 01:24:06;;;;;;;75.35;42.78;;;;;;;;;;6085334;29;20153;-78
2023/12/18 01:27:08;;;;;;;63.45;39.30;;;;;;;;;;6080086;29;20072;-78
2023/12/18 01:30:13;;;;;;;69.43;39.05;;;;;;;;;;6085944;29;20060;-79
2023/12/18 01:33:15;;;;;;;60.55;36.72;;;;;;;;;;6087943;29;20056;-80
2023/12/18 01:36:17;;;;;;;63.75;38.33;;;;;;;;;;6082110;29;20352;-81
2023/12/18 01:39:18;;;;;;;64.45;37.63;;;;;;;;;;6082266;29;20078;-79
2023/12/18 01:42:20;;;;;;;61.63;38.58;;;;;;;;;;6084756;29;20325;-80
2023/12/18 01:45:23;;;;;;;59.35;37.50;;;;;;;;;;6087991;29;20065;-82
2023/12/18 01:48:26;;;;;;;67.90;37.70;;;;;;;;;;6082515;29;20045;-80
2023/12/18 01:51:28;;;;;;;63.95;38.40;;;;;;;;;;6081658;29;20057;-80
2023/12/18 01:54:30;;;;;;;64.68;37.28;;;;;;;;;;6087087;29;20052;-80
2023/12/18 01:57:32;;;;;;;66.82;39.25;;;;;;;;;;6088615;29;20070;-87
2023/12/18 02:00:35;;;;;;;63.65;38.35;;;;;;;;;;6083580;29;20351;-87
2023/12/18 02:03:37;;;;;;;68.95;38.35;;;;;;;;;;6082784;29;20052;-87
2023/12/18 02:06:39;;;;;;;63.25;38.67;;;;;;;;;;6085493;29;20052;-86
2023/12/18 02:09:42;;;;;;;64.70;38.35;;;;;;;;;;6083889;29;20061;-85
2023/12/18 02:12:44;;;;;;;66.53;40.40;;;;;;;;;;6087768;29;20311;-86
2023/12/18 02:15:47;;;;;;;66.38;38.70;;;;;;;;;;6083234;29;20056;-86
2023/12/18 02:18:49;;;;;;;65.35;38.65;;;;;;;;;;6082327;29;20056;-84
2023/12/18 02:21:50;;;;;;;66.95;39.83;;;;;;;;;;6082390;29;20061;-86
2023/12/18 02:24:53;;;;;;;64.78;39.10;;;;;;;;;;6081399;29;20064;-86
2023/12/18 02:27:55;;;;;;;62.92;37.92;;;;;;;;;;6081829;29;20048;-85
2023/12/18 02:30:57;;;;;;;61.85;38.15;;;;;;;;;;6079229;29;20051;-85
2023/12/18 02:33:59;;;;;;;67.43;39.30;;;;;;;;;;6079061;29;20078;-84
2023/12/18 02:37:00;;;;;;;68.55;41.38;;;;;;;;;;6087309;29;20063;-85
2023/12/18 02:40:04;;;;;;;64.40;38.58;;;;;;;;;;6081174;29;20088;-85
2023/12/18 02:43:06;;;;;;;75.90;42.63;;;;;;;;;;6078834;29;20060;-85
2023/12/18 02:46:08;;;;;;;66.43;40.72;;;;;;;;;;6087904;29;20059;-85
2023/12/18 02:49:10;;;;;;;70.63;40.83;;;;;;;;;;6085636;29;20290;-85
2023/12/18 02:52:12;;;;;;;71.25;40.30;;;;;;;;;;6081382;29;20057;-85
2023/12/18 02:55:15;;;;;;;67.47;41.33;;;;;;;;;;6077868;29;20071;-85
2023/12/18 02:58:18;;;;;;;63.72;37.80;;;;;;;;;;6078883;29;20099;-83
2023/12/18 03:01:19;;;;;;;67.78;37.65;;;;;;;;;;6084258;29;20248;-85
2023/12/18 03:04:21;;;;;;;66.15;38.78;;;;;;;;;;6082303;29;20316;-84
2023/12/18 03:07:23;;;;;;;59.95;36.50;;;;;;;;;;6081556;29;20061;-85
2023/12/18 03:10:26;;;;;;;65.47;38.92;;;;;;;;;;6085569;29;20057;-84
2023/12/18 03:13:28;;;;;;;62.83;38.28;;;;;;;;;;6081056;29;20056;-87
2023/12/18 03:16:29;;;;;;;61.03;36.20;;;;;;;;;;6083569;29;20130;-85
2023/12/18 03:19:31;;;;;;;68.55;39.40;;;;;;;;;;6081461;29;20052;-84
2023/12/18 03:22:33;;;;;;;62.53;37.65;;;;;;;;;;6080508;29;20079;-86
2023/12/18 03:25:36;;;;;;;59.15;37.03;;;;;;;;;;6086889;29;20071;-85
2023/12/18 03:28:38;;;;;;;60.88;36.65;;;;;;;;;;6081826;29;20060;-84
2023/12/18 03:31:39;;;;;;;60.28;34.83;;;;;;;;;;6088806;29;20062;-85
2023/12/18 03:34:41;;;;;;;66.00;37.28;;;;;;;;;;6085309;29;20056;-85
2023/12/18 03:37:43;;;;;;;61.03;37.33;;;;;;;;;;6083383;29;20659;-84
2023/12/18 03:40:46;;;;;;;61.50;36.83;;;;;;;;;;6084569;29;20056;-85
2023/12/18 03:43:48;;;;;;;64.13;37.38;;;;;;;;;;6085847;29;20065;-85
2023/12/18 03:46:49;;;;;;;59.90;35.10;;;;;;;;;;6077423;29;20056;-85
2023/12/18 03:49:51;;;;;;;59.70;35.47;;;;;;;;;;6083066;29;20356;-84
2023/12/18 03:52:53;;;;;;;59.25;35.53;;;;;;;;;;6084603;29;20048;-85
2023/12/18 03:55:56;;;;;;;59.50;36.28;;;;;;;;;;6084286;29;20067;-87
2023/12/18 03:58:58;;;;;;;57.85;34.95;;;;;;;;;;6081981;29;20342;-85
2023/12/18 04:01:59;;;;;;;57.70;34.92;;;;;;;;;;6081033;29;20079;-84
2023/12/18 04:05:01;;;;;;;55.67;33.50;;;;;;;;;;6079645;29;20065;-83
2023/12/18 04:08:03;;;;;;;52.28;31.65;;;;;;;;;;6078350;29;20514;-84
2023/12/18 04:11:06;;;;;;;53.17;32.47;;;;;;;;;;6080087;29;20057;-85
2023/12/18 04:14:08;;;;;;;47.80;30.83;;;;;;;;;;6085883;29;20056;-84
2023/12/18 04:17:09;;;;;;;49.33;30.75;;;;;;;;;;6081895;29;20069;-84
2023/12/18 04:20:12;;;;;;;51.92;30.60;;;;;;;;;;6081308;29;20056;-84
2023/12/18 04:23:13;;;;;;;50.95;31.08;;;;;;;;;;6083780;29;20052;-87
2023/12/18 04:26:16;;;;;;;49.33;30.00;;;;;;;;;;6080933;29;20064;-85
2023/12/18 04:29:18;;;;;;;50.85;30.45;;;;;;;;;;6080048;29;20057;-85
2023/12/18 04:32:20;;;;;;;48.25;30.30;;;;;;;;;;6084576;29;20064;-84
2023/12/18 04:35:22;;;;;;;51.08;31.17;;;;;;;;;;6090775;29;20055;-86
2023/12/18 04:38:23;;;;;;;51.25;30.05;;;;;;;;;;6080828;29;20060;-84
2023/12/18 04:41:26;;;;;;;52.92;30.77;;;;;;;;;;6087157;29;20328;-85
2023/12/18 04:44:28;;;;;;;49.40;28.25;;;;;;;;;;6086966;29;20052;-85
2023/12/18 04:47:30;;;;;;;46.63;29.40;;;;;;;;;;6082589;29;20064;-86
2023/12/18 04:50:32;;;;;;;49.90;26.98;;;;;;;;;;6085267;29;20060;-85
2023/12/18 04:53:34;;;;;;;47.45;27.95;;;;;;;;;;6083827;29;20071;-86
2023/12/18 04:56:37;;;;;;;42.05;26.35;;;;;;;;;;6084388;29;20230;-87
2023/12/18 04:59:39;;;;;;;43.35;25.88;;;;;;;;;;6082748;29;20052;-86
2023/12/18 05:02:40;;;;;;;39.70;24.65;;;;;;;;;;6084027;29;20049;-86
2023/12/18 05:05:42;;;;;;;42.42;25.40;;;;;;;;;;6083753;29;20063;-87
2023/12/18 05:08:44;;;;;;;39.00;24.35;;;;;;;;;;6088122;29;20062;-87
2023/12/18 05:11:47;;;;;;;39.90;24.13;;;;;;;;;;6089592;29;20044;-86
2023/12/18 05:14:49;;;;;;;39.10;23.85;;;;;;;;;;6088467;29;20045;-84
2023/12/18 05:17:51;;;;;;;41.65;24.67;;;;;;;;;;6083556;29;20057;-85
2023/12/18 05:20:57;;;;;;;41.58;24.27;;;;;;;;;;6085303;29;20060;-84
2023/12/18 05:23:59;;;;;;;46.75;26.13;;;;;;;;;;6085261;29;20125;-83
2023/12/18 05:27:02;;;;;;;42.25;25.25;;;;;;;;;;6089272;29;20375;-86
2023/12/18 05:30:05;;;;;;;43.75;24.58;;;;;;;;;;6085298;29;20503;-87
2023/12/18 05:33:06;;;;;;;41.65;24.67;;;;;;;;;;6083686;29;20048;-84
2023/12/18 05:36:08;;;;;;;38.30;24.50;;;;;;;;;;6084668;29;20111;-79
2023/12/18 05:39:10;;;;;;;34.40;22.83;;;;;;;;;;6079031;29;20060;-78
2023/12/18 05:42:15;;;;;;;37.90;23.63;;;;;;;;;;6082108;29;20051;-78
2023/12/18 05:45:17;;;;;;;39.05;25.20;;;;;;;;;;6079804;29;20295;-84
2023/12/18 05:48:19;;;;;;;38.50;23.27;;;;;;;;;;6084815;29;20060;-85
2023/12/18 05:51:21;;;;;;;41.50;24.25;;;;;;;;;;6086520;29;20059;-85
2023/12/18 05:54:23;;;;;;;38.85;24.08;;;;;;;;;;6084104;29;20060;-85
2023/12/18 05:57:26;;;;;;;41.65;24.50;;;;;;;;;;6091587;29;20056;-84
2023/12/18 06:00:27;;;;;;;45.58;23.73;;;;;;;;;;6087809;29;20060;-85
2023/12/18 06:03:29;;;;;;;40.83;25.17;;;;;;;;;;6087298;29;20371;-87
2023/12/18 06:06:31;;;;;;;39.35;24.85;;;;;;;;;;6086744;29;21028;-86
2023/12/18 06:09:33;;;;;;;41.45;24.42;;;;;;;;;;6083338;29;20056;-86
2023/12/18 06:12:36;;;;;;;39.20;24.40;;;;;;;;;;6085761;29;20048;-87
2023/12/18 06:15:38;;;;;;;38.78;22.35;;;;;;;;;;6088410;29;20053;-86
2023/12/18 06:18:40;;;;;;;38.05;23.40;;;;;;;;;;6088374;29;20060;-86
2023/12/18 06:21:42;;;;;;;37.88;23.02;;;;;;;;;;6090555;29;20044;-86
2023/12/18 06:24:43;;;;;;;34.53;23.50;;;;;;;;;;6088523;29;20063;-86
2023/12/18 06:27:47;;;;;;;37.03;22.33;;;;;;;;;;6086045;29;20079;-86
2023/12/18 06:30:48;;;;;;;30.90;20.95;;;;;;;;;;6084460;29;20052;-87
2023/12/18 06:33:50;;;;;;;38.53;21.42;;;;;;;;;;6083043;29;20073;-86
2023/12/18 06:36:52;;;;;;;33.47;20.92;;;;;;;;;;6083576;29;20442;-86
2023/12/18 06:39:53;;;;;;;30.58;18.65;;;;;;;;;;6084986;29;20382;-86
2023/12/18 06:42:56;;;;;;;32.65;18.80;;;;;;;;;;6084411;29;20079;-87
2023/12/18 06:45:59;;;;;;;35.88;19.55;;;;;;;;;;6084477;29;20056;-85
2023/12/18 06:49:01;;;;;;;32.55;20.38;;;;;;;;;;6083531;29;20075;-87
2023/12/18 06:52:04;;;;;;;35.40;18.42;;;;;;;;;;6086448;29;20067;-84
2023/12/18 06:55:06;;;;;;;30.38;17.70;;;;;;;;;;6082029;29;20053;-86
2023/12/18 06:58:09;;;;;;;27.05;18.02;;;;;;;;;;6082066;29;20056;-86
2023/12/18 07:01:11;;;;;;;29.17;17.23;;;;;;;;;;6080721;29;20056;-87
2023/12/18 07:04:13;;;;;;;28.10;16.70;;;;;;;;;;6076818;29;20045;-87
2023/12/18 07:07:14;;;;;;;29.25;16.23;;;;;;;;;;6080590;29;20075;-81
2023/12/18 07:10:16;;;;;;;32.35;16.25;;;;;;;;;;6083282;29;20105;-80
2023/12/18 07:13:19;;;;;;;28.58;15.60;;;;;;;;;;6078477;29;20602;-80
2023/12/18 07:16:21;;;;;;;24.80;15.70;;;;;;;;;;6081643;29;20227;-80
2023/12/18 07:19:23;;;;;;;24.98;15.75;;;;;;;;;;6077099;29;20064;-80
2023/12/18 07:22:25;;;;;;;26.38;15.88;;;;;;;;;;6078043;29;20336;-81
2023/12/18 07:25:26;;;;;;;27.75;16.45;;;;;;;;;;6077812;29;20072;-79
2023/12/18 07:28:29;;;;;;;27.17;14.85;;;;;;;;;;6075244;29;20335;-79
2023/12/18 07:31:31;;;;;;;25.05;15.38;;;;;;;;;;6078503;29;20061;-79
2023/12/18 07:34:33;;;;;;;25.52;16.40;;;;;;;;;;6082820;29;20054;-80
2023/12/18 07:37:35;;;;;;;28.20;15.18;;;;;;;;;;6077999;29;20363;-80
2023/12/18 07:40:36;;;;;;;25.58;14.98;;;;;;;;;;6081327;29;20355;-81
2023/12/18 07:43:39;;;;;;;24.08;13.98;;;;;;;;;;6082999;29;20048;-81
2023/12/18 07:46:41;;;;;;;25.45;14.63;;;;;;;;;;6081585;29;20337;-80
2023/12/18 07:49:43;;;;;;;26.98;14.77;;;;;;;;;;6080640;29;20065;-79
2023/12/18 07:52:44;;;;;;;28.38;15.60;;;;;;;;;;6081136;29;20056;-81
2023/12/18 07:55:46;;;;;;;28.08;16.30;;;;;;;;;;6084388;29;20060;-81
2023/12/18 07:58:49;;;;;;;27.35;17.05;;;;;;;;;;6084685;29;20057;-81
2023/12/18 08:01:51;;;;;;;27.08;16.73;;;;;;;;;;6085484;29;20240;-81
2023/12/18 08:04:52;;;;;;;25.60;16.95;;;;;;;;;;6082134;29;20056;-81
2023/12/18 08:07:54;;;;;;;25.38;17.35;;;;;;;;;;6081833;29;20059;-81
2023/12/18 08:10:56;;;;;;;26.63;16.85;;;;;;;;;;6081378;29;20049;-81
2023/12/18 08:13:59;;;;;;;31.08;18.60;;;;;;;;;;6079335;29;20041;-81
2023/12/18 08:17:01;;;;;;;27.00;17.10;;;;;;;;;;6084439;29;20057;-87
2023/12/18 08:20:03;;;;;;;33.70;16.52;;;;;;;;;;6085343;29;20060;-88
2023/12/18 08:23:05;;;;;;;28.13;17.23;;;;;;;;;;6090908;29;20074;-88
2023/12/18 08:26:06;;;;;;;26.48;16.17;;;;;;;;;;6086292;29;20255;-87
2023/12/18 08:29:10;;;;;;;22.13;14.65;;;;;;;;;;6080872;29;20120;-89
2023/12/18 08:32:11;;;;;;;24.25;14.30;;;;;;;;;;6087872;29;20057;-88
2023/12/18 08:35:13;;;;;;;22.35;14.98;;;;;;;;;;6095045;29;20521;-87
2023/12/18 08:38:15;;;;;;;25.45;15.63;;;;;;;;;;6088895;29;20052;-87
2023/12/18 08:41:16;;;;;;;24.77;15.73;;;;;;;;;;6086188;29;20064;-87
2023/12/18 08:44:21;;;;;;;24.27;16.42;;;;;;;;;;6087440;29;20179;-87
2023/12/18 08:47:23;;;;;;;28.27;16.15;;;;;;;;;;6085775;29;20131;-87
2023/12/18 08:50:25;;;;;;;26.95;15.77;;;;;;;;;;6084683;29;20049;-86
2023/12/18 08:53:26;;;;;;;25.23;15.05;;;;;;;;;;6088559;29;20364;-88
2023/12/18 08:56:28;;;;;;;20.58;13.95;;;;;;;;;;6088233;29;20065;-88
2023/12/18 08:59:31;;;;;;;17.70;13.57;;;;;;;;;;6087638;29;20213;-87
2023/12/18 09:02:33;;;;;;;19.65;12.27;;;;;;;;;;6081591;28;20056;-86
2023/12/18 09:05:35;;;;;;;14.63;10.43;;;;;;;;;;6081157;29;20056;-86
2023/12/18 09:08:39;;;;;;;19.85;10.75;;;;;;;;;;6083719;29;20329;-87
2023/12/18 09:11:41;;;;;;;16.75;10.93;;;;;;;;;;6080851;29;20053;-87
2023/12/18 09:14:44;;;;;;;19.30;10.63;;;;;;;;;;6085648;29;20302;-87
2023/12/18 09:17:46;;;;;;;14.93;10.48;;;;;;;;;;6090011;29;20083;-88
2023/12/18 09:20:47;;;;;;;16.92;11.20;;;;;;;;;;6087676;29;20056;-88
2023/12/18 09:23:49;;;;;;;16.42;10.77;;;;;;;;;;6083583;29;20297;-84
2023/12/18 09:26:51;;;;;;;16.08;10.32;;;;;;;;;;6088311;29;20067;-88
2023/12/18 09:29:54;;;;;;;15.02;9.60;;;;;;;;;;6090592;29;20226;-88
2023/12/18 09:32:56;;;;;;;14.93;9.17;;;;;;;;;;6084583;29;20059;-89
2023/12/18 09:35:58;;;;;;;12.38;9.07;;;;;;;;;;6083786;29;20058;-87
2023/12/18 09:39:00;;;;;;;16.98;9.05;;;;;;;;;;6083305;29;20075;-87
2023/12/18 09:42:02;;;;;;;12.70;8.95;;;;;;;;;;6084354;29;20060;-88
2023/12/18 09:45:07;;;;;;;14.02;9.02;;;;;;;;;;6084457;29;20062;-87
2023/12/18 09:48:09;;;;;;;16.52;9.13;;;;;;;;;;6080156;29;20068;-87
2023/12/18 09:51:16;;;;;;;17.13;10.25;;;;;;;;;;6078836;29;20467;-88
2023/12/18 09:54:18;;;;;;;15.13;9.43;;;;;;;;;;6083019;29;20473;-88
2023/12/18 09:57:21;;;;;;;14.05;9.52;;;;;;;;;;6083265;29;20063;-87
2023/12/18 10:00:24;;;;;;;22.05;10.43;;;;;;;;;;6081994;29;20056;-86
2023/12/18 10:03:26;;;;;;;16.48;9.90;;;;;;;;;;6084800;29;20050;-86
2023/12/18 10:06:28;;;;;;;13.52;9.63;;;;;;;;;;6086927;29;20052;-88
2023/12/18 10:09:34;;;;;;;15.65;9.02;;;;;;;;;;6086222;29;20049;-87
2023/12/18 10:12:38;;;;;;;17.35;9.23;;;;;;;;;;6084960;29;20355;-88
2023/12/18 10:15:42;;;;;;;16.50;9.82;;;;;;;;;;6086807;29;20044;-88
2023/12/18 10:18:43;;;;;;;16.85;10.50;;;;;;;;;;6089801;29;20380;-88
2023/12/18 10:21:45;;;;;;;19.73;10.35;;;;;;;;;;6084777;29;20055;-86
2023/12/18 10:24:47;;;;;;;15.63;9.20;;;;;;;;;;6084036;29;20063;-86
2023/12/18 10:27:49;;;;;;;16.40;9.55;;;;;;;;;;6086822;29;20060;-88
2023/12/18 10:30:53;;;;;;;15.15;9.50;;;;;;;;;;6084562;29;20064;-85
2023/12/18 10:33:54;;;;;;;;;;;;;;;;;;6083504;29;20060;-87
2023/12/18 10:36:56;;;;;;;12.57;7.97;;;;;;;;;;6080062;29;19931;-82
2023/12/18 10:40:03;;;;;;;14.15;9.60;;;;;;;;;;6078933;29;20044;-81
2023/12/18 10:43:13;;;;;;;12.60;9.35;;;;;;;;;;6076829;29;20091;-82
2023/12/18 10:46:17;;;;;;;14.43;9.75;;;;;;;;;;6080534;29;20460;-82
2023/12/18 10:49:19;;;;;;;12.82;9.02;;;;;;;;;;6081825;29;20079;-81
2023/12/18 10:52:21;;;;;;;13.48;10.30;;;;;;;;;;6079840;29;20044;-81
2023/12/18 10:55:24;;;;;;;12.73;9.48;;;;;;;;;;6079366;29;20429;-81
2023/12/18 10:58:26;;;;;;;13.68;10.55;;;;;;;;;;6083433;29;20067;-81
2023/12/18 11:01:30;;;;;;;14.40;9.85;;;;;;;;;;6084493;29;20044;-82
2023/12/18 11:04:32;;;;;;;13.85;10.27;;;;;;;;;;6087403;29;20059;-81
2023/12/18 11:07:34;;;;;;;15.90;10.77;;;;;;;;;;6084797;29;20096;-83
2023/12/18 11:10:36;;;;;;;15.98;10.98;;;;;;;;;;6085291;29;20056;-82
2023/12/18 11:13:46;;;;;;;13.27;9.73;;;;;;;;;;6082843;29;20053;-81
2023/12/18 11:16:59;;;;;;;13.18;9.27;;;;;;;;;;6083825;29;20087;-81
2023/12/18 11:20:04;;;;;;;11.40;9.52;;;;;;;;;;6080876;29;20052;-82
2023/12/18 11:23:06;;;;;;;14.98;9.35;;;;;;;;;;6080181;29;20060;-81
2023/12/18 11:26:10;;;;;;;15.52;9.98;;;;;;;;;;6080688;29;20232;-82
2023/12/18 11:29:32;;;;;;;12.57;8.98;;;;;;;;;;6076400;29;20045;-81
2023/12/18 11:32:42;;;;;;;11.80;8.57;;;;;;;;;;6078217;29;20056;-81
2023/12/18 11:35:46;;;;;;;14.02;9.48;;;;;;;;;;6085210;29;20052;-81
2023/12/18 11:38:50;;;;;;;11.95;8.38;;;;;;;;;;6082017;29;20048;-81
2023/12/18 11:41:52;;;;;;;13.98;9.23;;;;;;;;;;6081299;29;20057;-81
2023/12/18 11:44:54;;;;;;;15.00;9.60;;;;;;;;;;6084469;29;20092;-82
2023/12/18 11:47:58;;;;;;;11.95;8.43;;;;;;;;;;6080283;29;20048;-88
2023/12/18 11:51:01;;;;;;;12.02;7.70;;;;;;;;;;6085394;29;20348;-87
2023/12/18 11:54:03;;;;;;;14.60;7.82;;;;;;;;;;6094447;29;20252;-88
2023/12/18 11:57:15;;;;;;;12.90;7.95;;;;;;;;;;6092266;29;20063;-86
2023/12/18 12:00:18;;;;;;;11.40;8.07;;;;;;;;;;6088640;29;20048;-87
2023/12/18 12:03:22;;;;;;;10.95;7.20;;;;;;;;;;6083925;29;20097;-85
2023/12/18 12:06:23;;;;;;;;;;;;;;;;;;6085406;29;20412;-87
2023/12/18 12:09:25;;;;;;;16.67;8.85;;;;;;;;;;6091183;29;19931;-88
2023/12/18 12:12:27;;;;;;;13.15;8.52;;;;;;;;;;6084086;29;20056;-87
2023/12/18 12:15:29;;;;;;;14.60;9.80;;;;;;;;;;6087110;29;20367;-88
2023/12/18 12:18:34;;;;;;;12.57;10.05;;;;;;;;;;6081057;29;20075;-87
2023/12/18 12:21:35;;;;;;;15.85;10.45;;;;;;;;;;6082991;29;20056;-87
2023/12/18 12:24:39;;;;;;;13.65;9.90;;;;;;;;;;6085685;29;20067;-87
2023/12/18 12:27:41;;;;;;;18.02;10.40;;;;;;;;;;6088759;29;20052;-87
2023/12/18 12:30:43;;;;;;;17.75;10.80;;;;;;;;;;6083942;29;20059;-89
2023/12/18 12:33:48;;;;;;;13.70;10.50;;;;;;;;;;6089270;29;20065;-87
2023/12/18 12:36:49;;;;;;;16.70;10.23;;;;;;;;;;6086987;29;20045;-87
2023/12/18 12:39:59;;;;;;;19.80;11.02;;;;;;;;;;6089313;29;20237;-85
2023/12/18 12:43:00;;;;;;;18.73;10.27;;;;;;;;;;6091368;29;20044;-85
2023/12/18 12:46:03;;;;;;;13.82;10.50;;;;;;;;;;6087592;29;20040;-87
2023/12/18 12:49:11;;;;;;;14.30;9.27;;;;;;;;;;6091619;29;20057;-87
2023/12/18 12:52:13;;;;;;;12.95;9.18;;;;;;;;;;6091462;29;20056;-89
2023/12/18 12:55:15;;;;;;;12.15;8.30;;;;;;;;;;6095162;29;20052;-86
2023/12/18 12:58:17;;;;;;;12.63;9.18;;;;;;;;;;6086540;29;20162;-81
2023/12/18 13:01:18;;;;;;;14.23;9.40;;;;;;;;;;6086769;29;20052;-82
2023/12/18 13:04:22;;;;;;;12.68;9.50;;;;;;;;;;6084697;29;20049;-82
2023/12/18 13:07:24;;;;;;;20.95;13.15;;;;;;;;;;6085214;29;20066;-81
2023/12/18 13:10:28;;;;;;;39.05;19.88;;;;;;;;;;6079921;29;20168;-81
2023/12/18 13:13:29;;;;;;;71.38;30.77;;;;;;;;;;6084718;29;20282;-82
2023/12/18 13:16:31;;;;;;;26.60;15.18;;;;;;;;;;6085984;29;20067;-80
2023/12/18 13:19:34;;;;;;;33.75;20.27;;;;;;;;;;6087108;29;20070;-80
2023/12/18 13:22:36;;;;;;;26.20;15.02;;;;;;;;;;6088170;29;20059;-80
2023/12/18 13:25:38;;;;;;;17.52;10.57;;;;;;;;;;6085250;29;20053;-78
2023/12/18 13:28:39;;;;;;;13.80;9.75;;;;;;;;;;6081940;29;20052;-80
2023/12/18 13:31:41;;;;;;;13.50;8.77;;;;;;;;;;6084929;29;20147;-80
2023/12/18 13:34:44;;;;;;;13.07;9.23;;;;;;;;;;6083672;29;20056;-81
2023/12/18 13:37:46;;;;;;;14.75;9.85;;;;;;;;;;6087387;29;20061;-81
2023/12/18 13:40:48;;;;;;;13.32;9.20;;;;;;;;;;6086284;29;20107;-80
2023/12/18 13:43:49;;;;;;;12.57;9.75;;;;;;;;;;6087542;29;20064;-81
2023/12/18 13:46:52;;;;;;;13.63;8.85;;;;;;;;;;6081412;29;20294;-81
2023/12/18 13:49:55;;;;;;;13.88;9.93;;;;;;;;;;6082610;29;20052;-81
2023/12/18 13:52:56;;;;;;;12.88;9.57;;;;;;;;;;6081287;29;20065;-80
2023/12/18 13:55:58;;;;;;;14.77;9.32;;;;;;;;;;6079678;29;20058;-82
2023/12/18 13:59:00;;;;;;;12.93;9.02;;;;;;;;;;6080476;29;20063;-80
2023/12/18 14:02:02;;;;;;;13.60;9.20;;;;;;;;;;6078908;29;20254;-81
2023/12/18 14:05:06;;;;;;;10.80;8.38;;;;;;;;;;6082115;29;20079;-80
2023/12/18 14:08:07;;;;;;;23.85;9.43;;;;;;;;;;6084634;29;20075;-85
2023/12/18 14:11:09;;;;;;;14.27;9.27;;;;;;;;;;6082423;29;20060;-85
2023/12/18 14:14:11;;;;;;;13.70;9.02;;;;;;;;;;6085887;29;20064;-84
2023/12/18 14:17:13;;;;;;;12.80;9.07;;;;;;;;;;6082432;29;20052;-85
2023/12/18 14:20:16;;;;;;;11.88;8.68;;;;;;;;;;6082983;29;20071;-86
2023/12/18 14:23:18;;;;;;;14.90;8.65;;;;;;;;;;6082633;29;20045;-84
2023/12/18 14:26:20;;;;;;;14.38;9.02;;;;;;;;;;6083228;29;20068;-84
2023/12/18 14:29:21;;;;;;;14.82;8.32;;;;;;;;;;6079983;29;20344;-88
2023/12/18 14:32:23;;;;;;;13.15;9.23;;;;;;;;;;6083309;29;20408;-87
2023/12/18 14:35:26;;;;;;;12.43;7.93;;;;;;;;;;6083248;29;20044;-87
2023/12/18 14:38:28;;;;;;;15.25;8.93;;;;;;;;;;6084258;29;20053;-87
2023/12/18 14:41:30;;;;;;;13.55;8.85;;;;;;;;;;6079423;29;20465;-84
2023/12/18 14:44:34;;;;;;;11.93;8.85;;;;;;;;;;6065791;29;20044;-86
2023/12/18 14:47:36;;;;;;;14.65;8.25;;;;;;;;;;6065924;29;20128;-84
2023/12/18 14:50:39;;;;;;;13.82;9.23;;;;;;;;;;6079835;29;20060;-86
2023/12/18 14:53:41;;;;;;;10.03;8.47;;;;;;;;;;6083297;29;20123;-87
2023/12/18 14:56:43;;;;;;;16.77;9.43;;;;;;;;;;6083201;29;20551;-88
2023/12/18 14:59:44;;;;;;;16.75;9.73;;;;;;;;;;6084455;29;20075;-84
2023/12/18 15:02:46;;;;;;;13.27;9.02;;;;;;;;;;6077699;29;20067;-84
2023/12/18 15:05:50;;;;;;;12.68;9.15;;;;;;;;;;6081581;29;20061;-84
2023/12/18 15:08:51;;;;;;;14.57;9.43;;;;;;;;;;6083636;29;20061;-84
2023/12/18 15:11:53;;;;;;;14.75;9.20;;;;;;;;;;6083082;29;20060;-84
2023/12/18 15:14:55;;;;;;;12.13;9.32;;;;;;;;;;6080474;29;20084;-83
2023/12/18 15:17:56;;;;;;;13.98;9.52;;;;;;;;;;6085325;29;20057;-84
2023/12/18 15:21:00;;;;;;;15.00;9.60;;;;;;;;;;6086244;29;20156;-85
2023/12/18 15:24:03;;;;;;;15.70;9.10;;;;;;;;;;6074760;29;20071;-85
2023/12/18 15:27:05;;;;;;;13.85;9.25;;;;;;;;;;6084288;29;20071;-84
2023/12/18 15:30:08;;;;;;;15.48;9.15;;;;;;;;;;6087855;29;20069;-84
2023/12/18 15:33:10;;;;;;;18.70;9.88;;;;;;;;;;6085393;29;20060;-84
2023/12/18 15:36:13;;;;;;;14.45;9.95;;;;;;;;;;6084437;29;20360;-83
2023/12/18 15:39:15;;;;;;;16.27;10.65;;;;;;;;;;6083331;29;20084;-85
2023/12/18 15:42:17;;;;;;;15.57;9.68;;;;;;;;;;6080480;29;20053;-84
2023/12/18 15:45:18;;;;;;;17.13;9.95;;;;;;;;;;6081457;29;20245;-84
2023/12/18 15:48:20;;;;;;;26.25;10.68;;;;;;;;;;6086425;29;20997;-84
2023/12/18 15:51:23;;;;;;;16.02;10.40;;;;;;;;;;6083734;29;20052;-83
2023/12/18 15:54:25;;;;;;;15.43;11.20;;;;;;;;;;6087215;29;20233;-83
2023/12/18 15:57:27;;;;;;;20.98;11.30;;;;;;;;;;6083210;29;20359;-85
2023/12/18 16:00:28;;;;;;;29.38;11.82;;;;;;;;;;6081298;29;20056;-84
2023/12/18 16:03:30;;;;;;;19.83;11.50;;;;;;;;;;6086497;29;20061;-85
2023/12/18 16:06:33;;;;;;;19.65;12.40;;;;;;;;;;6083352;29;20096;-84
2023/12/18 16:09:35;;;;;;;17.20;11.93;;;;;;;;;;6082506;29;20060;-85
2023/12/18 16:12:37;;;;;;;18.83;12.63;;;;;;;;;;6083715;29;20461;-83
2023/12/18 16:15:39;;;;;;;21.63;13.25;;;;;;;;;;6084381;29;20061;-85
2023/12/18 16:18:40;;;;;;;23.60;13.70;;;;;;;;;;6078360;29;20056;-84
2023/12/18 16:21:45;;;;;;;23.17;13.80;;;;;;;;;;6082891;29;20061;-84
2023/12/18 16:24:47;;;;;;;23.23;13.90;;;;;;;;;;6079805;29;20116;-84
2023/12/18 16:27:48;;;;;;;20.92;14.07;;;;;;;;;;6073502;29;20064;-84
2023/12/18 16:30:50;;;;;;;20.50;14.30;;;;;;;;;;6079418;29;20064;-84
2023/12/18 16:33:52;;;;;;;20.35;13.57;;;;;;;;;;6082934;29;20362;-82
2023/12/18 16:36:55;;;;;;;25.25;14.85;;;;;;;;;;6084493;29;20061;-85
2023/12/18 16:39:57;;;;;;;21.40;14.65;;;;;;;;;;6082571;29;20083;-83
2023/12/18 16:42:59;;;;;;;20.50;13.95;;;;;;;;;;6082791;29;20080;-83
2023/12/18 16:46:00;;;;;;;23.70;14.73;;;;;;;;;;6082486;29;20075;-88
2023/12/18 16:49:02;;;;;;;22.27;14.82;;;;;;;;;;6086513;29;20067;-84
2023/12/18 16:52:05;;;;;;;23.48;15.35;;;;;;;;;;6084018;29;20060;-84
2023/12/18 16:55:08;;;;;;;30.88;16.08;;;;;;;;;;6084493;29;20076;-83
2023/12/18 16:58:10;;;;;;;23.73;15.00;;;;;;;;;;6085608;29;20380;-85
2023/12/18 17:01:13;;;;;;;23.05;14.68;;;;;;;;;;6087528;29;20056;-83
2023/12/18 17:04:15;;;;;;;26.33;15.90;;;;;;;;;;6082007;29;20060;-85
2023/12/18 17:07:18;;;;;;;26.45;15.40;;;;;;;;;;6084223;29;20051;-84
2023/12/18 17:10:20;;;;;;;33.23;17.00;;;;;;;;;;6082801;29;20091;-84
2023/12/18 17:13:22;;;;;;;24.70;15.70;;;;;;;;;;6083584;29;20102;-84
2023/12/18 17:16:23;;;;;;;27.75;16.85;;;;;;;;;;6079625;29;20139;-83
2023/12/18 17:19:25;;;;;;;26.23;16.95;;;;;;;;;;6084997;29;20052;-83
2023/12/18 17:22:28;;;;;;;28.17;17.15;;;;;;;;;;6081720;29;20364;-83
2023/12/18 17:25:30;;;;;;;31.60;18.92;;;;;;;;;;6081831;29;20053;-85
2023/12/18 17:28:32;;;;;;;32.58;19.10;;;;;;;;;;6084282;29;20052;-83
2023/12/18 17:31:34;;;;;;;33.30;20.45;;;;;;;;;;6081629;29;20122;-83
2023/12/18 17:34:37;;;;;;;33.28;21.00;;;;;;;;;;6084442;29;20053;-85
2023/12/18 17:37:40;;;;;;;38.97;22.63;;;;;;;;;;6087600;29;20052;-83
2023/12/18 17:40:42;;;;;;;40.13;22.30;;;;;;;;;;6082263;29;20049;-84
2023/12/18 17:43:44;;;;;;;38.33;22.17;;;;;;;;;;6074545;29;20052;-84
2023/12/18 17:46:45;;;;;;;39.45;22.02;;;;;;;;;;6083158;29;20307;-85